createdAt,value
2023-01-06T00:00:26.448Z,1015.51
2023-01-06T00:01:26.441Z,1015.53
2023-01-06T00:02:26.465Z,1015.50
2023-01-06T00:03:26.450Z,1015.54
2023-01-06T00:04:26.474Z,1015.55
2023-01-06T00:05:26.464Z,1015.54
2023-01-06T00:06:26.477Z,1015.50
2023-01-06T00:07:26.485Z,1015.53
2023-01-06T00:08:26.496Z,1015.52
2023-01-06T00:09:26.503Z,1015.53
2023-01-06T00:10:26.511Z,1015.54
2023-01-06T00:11:26.526Z,1015.46
2023-01-06T00:12:26.530Z,1015.53
2023-01-06T00:13:26.550Z,1015.56
2023-01-06T00:14:26.556Z,1015.55
2023-01-06T00:15:26.569Z,1015.57
2023-01-06T00:16:26.571Z,1015.51
2023-01-06T00:17:26.582Z,1015.52
2023-01-06T00:18:26.591Z,1015.52
2023-01-06T00:19:26.599Z,1015.55
2023-01-06T00:20:26.608Z,1015.51
2023-01-06T00:21:26.630Z,1015.54
2023-01-06T00:22:26.632Z,1015.55
2023-01-06T00:23:26.646Z,1015.57
2023-01-06T00:24:26.651Z,1015.59
2023-01-06T00:25:26.657Z,1015.57
2023-01-06T00:26:26.673Z,1015.54
2023-01-06T00:27:26.676Z,1015.53
2023-01-06T00:28:26.705Z,1015.47
2023-01-06T00:29:26.697Z,1015.39
2023-01-06T00:30:26.708Z,1015.32
2023-01-06T00:31:26.744Z,1015.32
2023-01-06T00:32:26.724Z,1015.33
2023-01-06T00:33:26.731Z,1015.36
2023-01-06T00:34:26.743Z,1015.35
2023-01-06T00:35:26.755Z,1015.32
2023-01-06T00:36:26.761Z,1015.28
2023-01-06T00:37:26.769Z,1015.37
2023-01-06T00:38:26.781Z,1015.35
2023-01-06T00:39:26.785Z,1015.36
2023-01-06T00:40:26.797Z,1015.35
2023-01-06T00:41:26.808Z,1015.40
2023-01-06T00:42:26.821Z,1015.44
2023-01-06T00:43:26.826Z,1015.43
2023-01-06T00:44:26.833Z,1015.41
2023-01-06T00:45:26.852Z,1015.37
2023-01-06T00:46:26.932Z,1015.34
2023-01-06T00:47:26.879Z,1015.36
2023-01-06T00:48:26.870Z,1015.38
2023-01-06T00:49:26.890Z,1015.41
2023-01-06T00:50:26.891Z,1015.38
2023-01-06T00:51:26.900Z,1015.42
2023-01-06T00:52:26.907Z,1015.40
2023-01-06T00:53:26.930Z,1015.38
2023-01-06T00:54:26.929Z,1015.43
2023-01-06T00:55:26.939Z,1015.40
2023-01-06T00:56:26.950Z,1015.40
2023-01-06T00:57:26.955Z,1015.43
2023-01-06T00:58:26.966Z,1015.43
2023-01-06T00:59:26.972Z,1015.45
2023-01-06T01:00:26.984Z,1015.42
2023-01-06T01:01:27.140Z,1015.42
2023-01-06T01:02:27.148Z,1015.43
2023-01-06T01:03:27.010Z,1015.41
2023-01-06T01:04:27.025Z,1015.44
2023-01-06T01:05:27.029Z,1015.44
2023-01-06T01:06:27.041Z,1015.47
2023-01-06T01:07:27.046Z,1015.42
2023-01-06T01:08:27.058Z,1015.44
2023-01-06T01:09:27.071Z,1015.43
2023-01-06T01:10:27.079Z,1015.45
2023-01-06T01:11:27.085Z,1015.40
2023-01-06T01:12:27.096Z,1015.37
2023-01-06T01:13:27.107Z,1015.36
2023-01-06T01:14:27.112Z,1015.37
2023-01-06T01:15:27.126Z,1015.37
2023-01-06T01:16:27.138Z,1015.38
2023-01-06T01:17:27.144Z,1015.32
2023-01-06T01:18:27.153Z,1015.30
2023-01-06T01:19:27.160Z,1015.34
2023-01-06T01:20:27.178Z,1015.31
2023-01-06T01:21:27.187Z,1015.27
2023-01-06T01:22:27.199Z,1015.28
2023-01-06T01:23:27.200Z,1015.26
2023-01-06T01:24:27.210Z,1015.23
2023-01-06T01:25:27.237Z,1015.22
2023-01-06T01:26:27.230Z,1015.18
2023-01-06T01:27:27.243Z,1015.21
2023-01-06T01:28:27.246Z,1015.22
2023-01-06T01:29:27.260Z,1015.19
2023-01-06T01:30:27.267Z,1015.17
2023-01-06T01:31:27.340Z,1015.16
2023-01-06T01:32:27.291Z,1015.13
2023-01-06T01:33:27.297Z,1015.12
2023-01-06T01:34:27.304Z,1015.11
2023-01-06T01:35:27.342Z,1015.11
2023-01-06T01:36:27.328Z,1015.12
2023-01-06T01:37:27.342Z,1015.11
2023-01-06T01:38:27.346Z,1015.12
2023-01-06T01:39:27.352Z,1015.06
2023-01-06T01:40:27.363Z,1015.06
2023-01-06T01:41:27.389Z,1015.03
2023-01-06T01:42:27.391Z,1015.05
2023-01-06T01:43:27.394Z,1015.08
2023-01-06T01:44:27.417Z,1015.11
2023-01-06T01:45:27.413Z,1015.09
2023-01-06T01:46:27.521Z,1015.12
2023-01-06T01:47:27.431Z,1015.13
2023-01-06T01:48:27.444Z,1015.14
2023-01-06T01:49:27.457Z,1015.11
2023-01-06T01:50:27.471Z,1015.13
2023-01-06T01:51:27.473Z,1015.12
2023-01-06T01:52:27.488Z,1015.09
2023-01-06T01:53:27.494Z,1015.01
2023-01-06T01:54:27.508Z,1015.01
2023-01-06T01:55:27.515Z,1014.99
2023-01-06T01:56:27.530Z,1014.99
2023-01-06T01:57:27.537Z,1014.99
2023-01-06T01:58:27.555Z,1014.96
2023-01-06T01:59:27.565Z,1014.90
2023-01-06T02:00:27.572Z,1014.93
2023-01-06T02:01:27.646Z,1014.95
2023-01-06T02:02:27.679Z,1014.96
2023-01-06T02:03:27.599Z,1014.92
2023-01-06T02:04:27.617Z,1014.92
2023-01-06T02:05:27.635Z,1014.96
2023-01-06T02:06:27.658Z,1014.98
2023-01-06T02:07:27.637Z,1014.96
2023-01-06T02:08:27.662Z,1014.98
2023-01-06T02:09:27.663Z,1014.95
2023-01-06T02:10:27.669Z,1014.93
2023-01-06T02:11:27.678Z,1014.91
2023-01-06T02:12:27.689Z,1014.94
2023-01-06T02:13:27.702Z,1014.91
2023-01-06T02:14:27.709Z,1014.95
2023-01-06T02:15:27.719Z,1014.93
2023-01-06T02:16:27.735Z,1014.93
2023-01-06T02:17:27.741Z,1014.87
2023-01-06T02:18:27.758Z,1014.91
2023-01-06T02:19:27.759Z,1014.86
2023-01-06T02:20:27.768Z,1014.85
2023-01-06T02:21:27.779Z,1014.78
2023-01-06T02:22:27.789Z,1014.76
2023-01-06T02:23:27.799Z,1014.76
2023-01-06T02:24:27.810Z,1014.76
2023-01-06T02:25:27.832Z,1014.76
2023-01-06T02:26:27.841Z,1014.72
2023-01-06T02:27:27.838Z,1014.71
2023-01-06T02:28:27.853Z,1014.69
2023-01-06T02:29:27.865Z,1014.65
2023-01-06T02:30:27.886Z,1014.65
2023-01-06T02:31:27.880Z,1014.66
2023-01-06T02:32:27.891Z,1014.62
2023-01-06T02:33:27.905Z,1014.68
2023-01-06T02:34:27.914Z,1014.64
2023-01-06T02:35:27.924Z,1014.65
2023-01-06T02:36:27.933Z,1014.67
2023-01-06T02:37:27.944Z,1014.67
2023-01-06T02:38:27.963Z,1014.61
2023-01-06T02:39:27.969Z,1014.63
2023-01-06T02:40:27.977Z,1014.62
2023-01-06T02:41:27.989Z,1014.63
2023-01-06T02:42:27.997Z,1014.59
2023-01-06T02:43:28.004Z,1014.61
2023-01-06T02:44:28.016Z,1014.59
2023-01-06T02:45:28.029Z,1014.58
2023-01-06T02:46:28.078Z,1014.51
2023-01-06T02:47:28.049Z,1014.53
2023-01-06T02:48:28.064Z,1014.52
2023-01-06T02:49:28.067Z,1014.51
2023-01-06T02:50:28.078Z,1014.54
2023-01-06T02:51:28.086Z,1014.47
2023-01-06T02:52:28.105Z,1014.46
2023-01-06T02:53:28.109Z,1014.51
2023-01-06T02:54:28.145Z,1014.51
2023-01-06T02:55:28.130Z,1014.48
2023-01-06T02:56:28.140Z,1014.49
2023-01-06T02:57:28.152Z,1014.52
2023-01-06T02:58:28.163Z,1014.49
2023-01-06T02:59:28.171Z,1014.49
2023-01-06T03:00:28.183Z,1014.48
2023-01-06T03:01:28.275Z,1014.49
2023-01-06T03:02:28.238Z,1014.54
2023-01-06T03:03:28.224Z,1014.57
2023-01-06T03:04:28.256Z,1014.58
2023-01-06T03:05:28.238Z,1014.57
2023-01-06T03:06:28.248Z,1014.56
2023-01-06T03:07:28.259Z,1014.53
2023-01-06T03:08:28.268Z,1014.55
2023-01-06T03:09:28.274Z,1014.48
2023-01-06T03:10:28.294Z,1014.46
2023-01-06T03:11:28.302Z,1014.43
2023-01-06T03:12:28.311Z,1014.48
2023-01-06T03:13:28.319Z,1014.44
2023-01-06T03:14:28.330Z,1014.42
2023-01-06T03:15:28.341Z,1014.41
2023-01-06T03:16:28.414Z,1014.42
2023-01-06T03:17:28.363Z,1014.40
2023-01-06T03:18:28.375Z,1014.40
2023-01-06T03:19:28.383Z,1014.33
2023-01-06T03:20:28.399Z,1014.32
2023-01-06T03:21:28.407Z,1014.28
2023-01-06T03:22:28.422Z,1014.26
2023-01-06T03:23:28.425Z,1014.26
2023-01-06T03:24:28.437Z,1014.24
2023-01-06T03:25:28.445Z,1014.27
2023-01-06T03:26:28.457Z,1014.19
2023-01-06T03:27:28.467Z,1014.19
2023-01-06T03:28:28.488Z,1014.14
2023-01-06T03:29:28.508Z,1014.17
2023-01-06T03:30:28.500Z,1014.19
2023-01-06T03:31:28.591Z,1014.10
2023-01-06T03:32:28.527Z,1014.17
2023-01-06T03:33:28.533Z,1014.18
2023-01-06T03:34:28.546Z,1014.22
2023-01-06T03:35:28.551Z,1014.17
2023-01-06T03:36:28.562Z,1014.13
2023-01-06T03:37:28.580Z,1014.14
2023-01-06T03:38:28.587Z,1014.13
2023-01-06T03:39:28.597Z,1014.10
2023-01-06T03:40:28.619Z,1014.09
2023-01-06T03:41:28.616Z,1014.07
2023-01-06T03:42:36.185Z,1014.06
2023-01-06T03:43:28.642Z,1014.03
2023-01-06T03:44:28.648Z,1014.03
2023-01-06T03:45:28.665Z,1014.03
2023-01-06T03:46:28.707Z,1014.03
2023-01-06T03:47:28.679Z,1014.02
2023-01-06T03:48:28.696Z,1014.03
2023-01-06T03:49:28.706Z,1013.95
2023-01-06T03:50:28.716Z,1014.01
2023-01-06T03:51:28.728Z,1013.99
2023-01-06T03:52:28.748Z,1014.02
2023-01-06T03:53:28.751Z,1014.00
2023-01-06T03:54:28.757Z,1013.91
2023-01-06T03:55:28.771Z,1013.93
2023-01-06T03:56:28.778Z,1013.84
2023-01-06T03:57:28.786Z,1013.85
2023-01-06T03:58:28.796Z,1013.82
2023-01-06T03:59:28.808Z,1013.81
2023-01-06T04:00:28.819Z,1013.83
2023-01-06T04:01:28.845Z,1013.84
2023-01-06T04:02:28.843Z,1013.82
2023-01-06T04:03:28.896Z,1013.82
2023-01-06T04:04:28.871Z,1013.82
2023-01-06T04:05:28.895Z,1013.87
2023-01-06T04:06:28.888Z,1013.86
2023-01-06T04:07:28.893Z,1013.84
2023-01-06T04:08:28.903Z,1013.84
2023-01-06T04:09:28.916Z,1013.87
2023-01-06T04:10:28.926Z,1013.86
2023-01-06T04:11:28.940Z,1013.88
2023-01-06T04:12:28.949Z,1013.87
2023-01-06T04:13:28.959Z,1013.84
2023-01-06T04:14:28.969Z,1013.82
2023-01-06T04:15:28.977Z,1013.83
2023-01-06T04:16:29.070Z,1013.80
2023-01-06T04:17:29.006Z,1013.86
2023-01-06T04:18:29.018Z,1013.82
2023-01-06T04:19:29.026Z,1013.79
2023-01-06T04:20:29.032Z,1013.80
2023-01-06T04:21:29.051Z,1013.79
2023-01-06T04:22:29.065Z,1013.74
2023-01-06T04:23:29.063Z,1013.79
2023-01-06T04:24:29.083Z,1013.72
2023-01-06T04:25:29.093Z,1013.74
2023-01-06T04:26:29.130Z,1013.67
2023-01-06T04:27:29.126Z,1013.67
2023-01-06T04:28:29.116Z,1013.68
2023-01-06T04:29:29.128Z,1013.63
2023-01-06T04:30:29.138Z,1013.63
2023-01-06T04:31:29.159Z,1013.60
2023-01-06T04:32:29.159Z,1013.58
2023-01-06T04:33:29.170Z,1013.57
2023-01-06T04:34:29.193Z,1013.59
2023-01-06T04:35:29.191Z,1013.57
2023-01-06T04:36:29.206Z,1013.62
2023-01-06T04:37:29.216Z,1013.62
2023-01-06T04:38:29.226Z,1013.58
2023-01-06T04:39:29.243Z,1013.56
2023-01-06T04:40:29.247Z,1013.58
2023-01-06T04:41:29.258Z,1013.52
2023-01-06T04:42:29.269Z,1013.52
2023-01-06T04:43:29.278Z,1013.52
2023-01-06T04:44:29.293Z,1013.48
2023-01-06T04:45:29.366Z,1013.46
2023-01-06T04:46:29.314Z,1013.50
2023-01-06T04:47:29.320Z,1013.51
2023-01-06T04:48:29.329Z,1013.42
2023-01-06T04:49:29.341Z,1013.43
2023-01-06T04:50:29.355Z,1013.37
2023-01-06T04:51:29.362Z,1013.38
2023-01-06T04:52:29.401Z,1013.35
2023-01-06T04:53:29.386Z,1013.32
2023-01-06T04:54:29.398Z,1013.25
2023-01-06T04:55:29.410Z,1013.26
2023-01-06T04:56:29.427Z,1013.21
2023-01-06T04:57:29.442Z,1013.17
2023-01-06T04:58:29.449Z,1013.14
2023-01-06T04:59:29.460Z,1013.15
2023-01-06T05:00:29.462Z,1013.09
2023-01-06T05:01:29.583Z,1013.07
2023-01-06T05:02:29.490Z,1013.12
2023-01-06T05:03:29.529Z,1013.11
2023-01-06T05:04:34.208Z,1013.08
2023-01-06T05:05:29.542Z,1013.13
2023-01-06T05:06:29.530Z,1013.10
2023-01-06T05:07:29.539Z,1013.05
2023-01-06T05:08:29.547Z,1013.07
2023-01-06T05:09:29.558Z,1013.05
2023-01-06T05:10:29.570Z,1013.05
2023-01-06T05:11:29.579Z,1012.99
2023-01-06T05:12:29.600Z,1013.01
2023-01-06T05:13:29.607Z,1013.02
2023-01-06T05:14:29.616Z,1012.98
2023-01-06T05:15:29.623Z,1012.97
2023-01-06T05:16:29.663Z,1012.97
2023-01-06T05:17:29.645Z,1012.97
2023-01-06T05:18:29.661Z,1012.98
2023-01-06T05:19:29.664Z,1012.89
2023-01-06T05:20:29.677Z,1012.97
2023-01-06T05:21:32.283Z,1012.93
2023-01-06T05:22:29.697Z,1012.93
2023-01-06T05:23:29.709Z,1012.92
2023-01-06T05:24:29.718Z,1012.93
2023-01-06T05:25:29.730Z,1012.90
2023-01-06T05:26:29.745Z,1012.96
2023-01-06T05:27:29.748Z,1012.96
2023-01-06T05:28:29.772Z,1012.96
2023-01-06T05:29:29.772Z,1012.94
2023-01-06T05:30:29.786Z,1012.90
2023-01-06T05:31:29.830Z,1012.90
2023-01-06T05:32:29.809Z,1012.90
2023-01-06T05:33:29.821Z,1012.86
2023-01-06T05:34:29.828Z,1012.87
2023-01-06T05:35:29.835Z,1012.84
2023-01-06T05:36:29.848Z,1012.82
2023-01-06T05:37:29.861Z,1012.80
2023-01-06T05:38:29.868Z,1012.83
2023-01-06T05:39:29.876Z,1012.76
2023-01-06T05:40:29.892Z,1012.73
2023-01-06T05:41:29.897Z,1012.71
2023-01-06T05:42:29.910Z,1012.70
2023-01-06T05:43:29.921Z,1012.70
2023-01-06T05:44:29.942Z,1012.63
2023-01-06T05:45:30.028Z,1012.68
2023-01-06T05:46:29.955Z,1012.67
2023-01-06T05:47:29.964Z,1012.63
2023-01-06T05:48:29.973Z,1012.64
2023-01-06T05:49:29.984Z,1012.61
2023-01-06T05:50:30.003Z,1012.55
2023-01-06T05:51:30.004Z,1012.61
2023-01-06T05:52:30.023Z,1012.64
2023-01-06T05:53:30.028Z,1012.65
2023-01-06T05:54:30.043Z,1012.63
2023-01-06T05:55:30.055Z,1012.64
2023-01-06T05:56:30.061Z,1012.62
2023-01-06T05:57:30.070Z,1012.55
2023-01-06T05:58:30.082Z,1012.56
2023-01-06T05:59:30.092Z,1012.57
2023-01-06T06:00:30.099Z,1012.59
2023-01-06T06:01:30.112Z,1012.63
2023-01-06T06:02:30.165Z,1012.62
2023-01-06T06:03:30.181Z,1012.62
2023-01-06T06:04:30.145Z,1012.55
2023-01-06T06:05:30.152Z,1012.53
2023-01-06T06:06:30.161Z,1012.48
2023-01-06T06:07:30.172Z,1012.52
2023-01-06T06:08:30.182Z,1012.55
2023-01-06T06:09:30.193Z,1012.56
2023-01-06T06:10:30.206Z,1012.62
2023-01-06T06:11:30.217Z,1012.62
2023-01-06T06:12:30.227Z,1012.69
2023-01-06T06:13:30.240Z,1012.63
2023-01-06T06:14:30.250Z,1012.64
2023-01-06T06:15:30.257Z,1012.61
2023-01-06T06:16:30.319Z,1012.59
2023-01-06T06:17:30.279Z,1012.60
2023-01-06T06:18:30.289Z,1012.55
2023-01-06T06:19:30.303Z,1012.57
2023-01-06T06:20:30.329Z,1012.58
2023-01-06T06:21:30.330Z,1012.54
2023-01-06T06:22:30.336Z,1012.54
2023-01-06T06:23:30.343Z,1012.50
2023-01-06T06:24:30.357Z,1012.47
2023-01-06T06:25:30.364Z,1012.45
2023-01-06T06:26:30.384Z,1012.45
2023-01-06T06:27:30.385Z,1012.39
2023-01-06T06:28:30.400Z,1012.35
2023-01-06T06:29:30.408Z,1012.30
2023-01-06T06:30:30.418Z,1012.29
2023-01-06T06:31:30.480Z,1012.23
2023-01-06T06:32:30.438Z,1012.22
2023-01-06T06:33:30.450Z,1012.19
2023-01-06T06:34:30.459Z,1012.22
2023-01-06T06:35:30.468Z,1012.27
2023-01-06T06:36:30.501Z,1012.28
2023-01-06T06:37:30.492Z,1012.26
2023-01-06T06:38:30.506Z,1012.29
2023-01-06T06:39:30.509Z,1012.29
2023-01-06T06:40:30.523Z,1012.31
2023-01-06T06:41:30.537Z,1012.25
2023-01-06T06:42:30.545Z,1012.24
2023-01-06T06:43:30.554Z,1012.24
2023-01-06T06:44:30.562Z,1012.22
2023-01-06T06:45:30.599Z,1012.21
2023-01-06T06:46:30.601Z,1012.18
2023-01-06T06:47:30.599Z,1012.19
2023-01-06T06:48:30.615Z,1012.24
2023-01-06T06:49:30.626Z,1012.22
2023-01-06T06:50:30.628Z,1012.24
2023-01-06T06:51:30.650Z,1012.22
2023-01-06T06:52:30.660Z,1012.21
2023-01-06T06:53:30.665Z,1012.15
2023-01-06T06:54:30.669Z,1012.10
2023-01-06T06:55:30.685Z,1012.12
2023-01-06T06:56:30.704Z,1012.10
2023-01-06T06:57:30.702Z,1012.12
2023-01-06T06:58:30.717Z,1012.11
2023-01-06T06:59:30.723Z,1012.12
2023-01-06T07:00:30.738Z,1012.13
2023-01-06T07:01:30.793Z,1012.12
2023-01-06T07:02:30.759Z,1012.12
2023-01-06T07:03:30.763Z,1012.10
2023-01-06T07:04:30.820Z,1012.07
2023-01-06T07:05:30.788Z,1012.06
2023-01-06T07:06:30.798Z,1012.03
2023-01-06T07:07:30.808Z,1012.02
2023-01-06T07:08:30.818Z,1011.96
2023-01-06T07:09:30.829Z,1011.96
2023-01-06T07:10:30.843Z,1011.91
2023-01-06T07:11:30.858Z,1011.95
2023-01-06T07:12:30.863Z,1012.02
2023-01-06T07:13:30.874Z,1012.03
2023-01-06T07:14:30.888Z,1012.02
2023-01-06T07:15:30.920Z,1012.00
2023-01-06T07:16:30.913Z,1011.99
2023-01-06T07:17:30.913Z,1011.93
2023-01-06T07:18:30.926Z,1012.02
2023-01-06T07:19:30.936Z,1011.96
2023-01-06T07:20:30.950Z,1011.96
2023-01-06T07:21:30.960Z,1011.97
2023-01-06T07:22:30.988Z,1011.99
2023-01-06T07:23:30.983Z,1011.97
2023-01-06T07:24:30.995Z,1011.98
2023-01-06T07:25:31.018Z,1011.99
2023-01-06T07:26:31.015Z,1011.96
2023-01-06T07:27:31.022Z,1011.92
2023-01-06T07:28:31.035Z,1011.95
2023-01-06T07:29:31.048Z,1011.98
2023-01-06T07:30:31.055Z,1011.95
2023-01-06T07:31:31.144Z,1011.93
2023-01-06T07:32:31.078Z,1011.95
2023-01-06T07:33:31.090Z,1011.98
2023-01-06T07:34:31.102Z,1012.03
2023-01-06T07:35:31.111Z,1012.06
2023-01-06T07:36:31.123Z,1012.01
2023-01-06T07:37:31.136Z,1012.03
2023-01-06T07:38:31.142Z,1011.96
2023-01-06T07:39:31.155Z,1011.94
2023-01-06T07:40:31.169Z,1011.96
2023-01-06T07:41:31.191Z,1011.97
2023-01-06T07:42:31.185Z,1011.92
2023-01-06T07:43:31.215Z,1012.01
2023-01-06T07:44:31.218Z,1012.09
2023-01-06T07:45:31.217Z,1012.09
2023-01-06T07:46:31.295Z,1012.03
2023-01-06T07:47:31.237Z,1012.03
2023-01-06T07:48:31.250Z,1012.07
2023-01-06T07:49:31.262Z,1012.08
2023-01-06T07:50:31.273Z,1012.02
2023-01-06T07:51:31.286Z,1012.01
2023-01-06T07:52:31.293Z,1011.99
2023-01-06T07:53:31.316Z,1012.02
2023-01-06T07:54:31.326Z,1012.02
2023-01-06T07:55:31.342Z,1012.08
2023-01-06T07:56:31.348Z,1012.10
2023-01-06T07:57:31.352Z,1012.08
2023-01-06T07:58:31.377Z,1012.07
2023-01-06T07:59:31.376Z,1012.08
2023-01-06T08:00:31.389Z,1012.08
2023-01-06T08:01:31.495Z,1012.00
2023-01-06T08:02:31.557Z,1011.94
2023-01-06T08:03:31.420Z,1011.92
2023-01-06T08:04:31.434Z,1011.90
2023-01-06T08:05:31.442Z,1011.84
2023-01-06T08:06:31.455Z,1011.88
2023-01-06T08:07:31.465Z,1011.94
2023-01-06T08:08:31.472Z,1012.02
2023-01-06T08:09:31.496Z,1012.03
2023-01-06T08:10:31.497Z,1011.93
2023-01-06T08:11:31.507Z,1011.90
2023-01-06T08:12:31.516Z,1011.85
2023-01-06T08:13:31.530Z,1011.84
2023-01-06T08:14:31.541Z,1011.84
2023-01-06T08:15:31.564Z,1011.77
2023-01-06T08:16:31.566Z,1011.79
2023-01-06T08:17:31.574Z,1011.78
2023-01-06T08:18:31.585Z,1011.79
2023-01-06T08:19:31.599Z,1011.75
2023-01-06T08:20:31.610Z,1011.68
2023-01-06T08:21:31.620Z,1011.68
2023-01-06T08:22:31.634Z,1011.69
2023-01-06T08:23:31.642Z,1011.70
2023-01-06T08:24:32.664Z,1011.72
2023-01-06T08:25:31.665Z,1011.77
2023-01-06T08:26:31.680Z,1011.76
2023-01-06T08:27:31.699Z,1011.74
2023-01-06T08:28:31.699Z,1011.70
2023-01-06T08:29:31.718Z,1011.65
2023-01-06T08:30:31.722Z,1011.65
2023-01-06T08:31:31.825Z,1011.66
2023-01-06T08:32:31.746Z,1011.59
2023-01-06T08:33:31.764Z,1011.54
2023-01-06T08:34:31.767Z,1011.58
2023-01-06T08:35:31.779Z,1011.58
2023-01-06T08:36:31.792Z,1011.53
2023-01-06T08:37:31.805Z,1011.60
2023-01-06T08:38:31.814Z,1011.62
2023-01-06T08:39:31.838Z,1011.62
2023-01-06T08:40:31.837Z,1011.60
2023-01-06T08:41:31.873Z,1011.59
2023-01-06T08:42:31.862Z,1011.61
2023-01-06T08:43:31.869Z,1011.62
2023-01-06T08:44:31.921Z,1011.63
2023-01-06T08:45:31.904Z,1011.62
2023-01-06T08:46:31.934Z,1011.53
2023-01-06T08:47:31.929Z,1011.49
2023-01-06T08:48:31.928Z,1011.49
2023-01-06T08:49:31.945Z,1011.50
2023-01-06T08:50:31.955Z,1011.53
2023-01-06T08:51:31.966Z,1011.50
2023-01-06T08:52:31.980Z,1011.47
2023-01-06T08:53:31.989Z,1011.44
2023-01-06T08:54:32.009Z,1011.45
2023-01-06T08:55:32.016Z,1011.47
2023-01-06T08:56:32.032Z,1011.40
2023-01-06T08:57:32.039Z,1011.35
2023-01-06T08:58:32.051Z,1011.32
2023-01-06T08:59:32.060Z,1011.31
2023-01-06T09:00:32.085Z,1011.34
2023-01-06T09:01:32.191Z,1011.28
2023-01-06T09:02:32.097Z,1011.25
2023-01-06T09:03:32.108Z,1011.24
2023-01-06T09:04:32.121Z,1011.26
2023-01-06T09:05:32.131Z,1011.29
2023-01-06T09:06:32.154Z,1011.32
2023-01-06T09:07:32.157Z,1011.33
2023-01-06T09:08:32.166Z,1011.33
2023-01-06T09:09:32.198Z,1011.30
2023-01-06T09:10:32.196Z,1011.27
2023-01-06T09:11:32.203Z,1011.33
2023-01-06T09:12:32.225Z,1011.43
2023-01-06T09:13:32.237Z,1011.46
2023-01-06T09:14:32.240Z,1011.51
2023-01-06T09:15:32.255Z,1011.55
2023-01-06T09:16:32.263Z,1011.55
2023-01-06T09:17:32.273Z,1011.58
2023-01-06T09:18:32.305Z,1011.60
2023-01-06T09:19:32.300Z,1011.62
2023-01-06T09:20:32.311Z,1011.58
2023-01-06T09:21:32.324Z,1011.57
2023-01-06T09:22:32.337Z,1011.52
2023-01-06T09:23:32.349Z,1011.50
2023-01-06T09:24:32.362Z,1011.47
2023-01-06T09:25:32.373Z,1011.44
2023-01-06T09:26:32.391Z,1011.41
2023-01-06T09:27:32.395Z,1011.31
2023-01-06T09:28:32.413Z,1011.31
2023-01-06T09:29:32.431Z,1011.24
2023-01-06T09:30:32.435Z,1011.27
2023-01-06T09:31:32.504Z,1011.30
2023-01-06T09:32:32.464Z,1011.28
2023-01-06T09:33:32.474Z,1011.30
2023-01-06T09:34:32.496Z,1011.35
2023-01-06T09:35:32.500Z,1011.36
2023-01-06T09:36:32.515Z,1011.43
2023-01-06T09:37:32.528Z,1011.44
2023-01-06T09:38:32.541Z,1011.36
2023-01-06T09:39:32.554Z,1011.28
2023-01-06T09:40:32.570Z,1011.26
2023-01-06T09:41:32.572Z,1011.31
2023-01-06T09:42:32.610Z,1011.27
2023-01-06T09:43:32.597Z,1011.19
2023-01-06T09:44:32.611Z,1011.21
2023-01-06T09:45:32.623Z,1011.21
2023-01-06T09:46:32.670Z,1011.12
2023-01-06T09:47:32.647Z,1011.09
2023-01-06T09:48:32.661Z,1011.08
2023-01-06T09:49:32.676Z,1011.03
2023-01-06T09:50:32.690Z,1011.07
2023-01-06T09:51:32.703Z,1011.02
2023-01-06T09:52:32.712Z,1011.05
2023-01-06T09:53:32.726Z,1011.06
2023-01-06T09:54:32.739Z,1011.02
2023-01-06T09:55:32.761Z,1011.03
2023-01-06T09:56:32.776Z,1010.99
2023-01-06T09:57:32.775Z,1010.94
2023-01-06T09:58:32.802Z,1010.85
2023-01-06T09:59:32.802Z,1010.83
2023-01-06T10:00:32.823Z,1010.77
2023-01-06T10:01:32.903Z,1010.81
2023-01-06T10:02:32.911Z,1010.82
2023-01-06T10:03:32.919Z,1010.83
2023-01-06T10:04:32.869Z,1010.76
2023-01-06T10:05:32.882Z,1010.79
2023-01-06T10:06:32.897Z,1010.81
2023-01-06T10:07:32.916Z,1010.77
2023-01-06T10:08:32.923Z,1010.78
2023-01-06T10:09:32.937Z,1010.73
2023-01-06T10:10:32.947Z,1010.67
2023-01-06T10:11:32.963Z,1010.61
2023-01-06T10:12:32.977Z,1010.55
2023-01-06T10:13:32.987Z,1010.60
2023-01-06T10:14:33.002Z,1010.63
2023-01-06T10:15:33.046Z,1010.63
2023-01-06T10:16:33.093Z,1010.69
2023-01-06T10:17:33.076Z,1010.62
2023-01-06T10:18:33.062Z,1010.62
2023-01-06T10:19:33.070Z,1010.58
2023-01-06T10:20:33.077Z,1010.61
2023-01-06T10:21:33.099Z,1010.54
2023-01-06T10:22:33.105Z,1010.57
2023-01-06T10:23:33.119Z,1010.49
2023-01-06T10:24:33.134Z,1010.48
2023-01-06T10:25:33.144Z,1010.43
2023-01-06T10:26:33.157Z,1010.42
2023-01-06T10:27:33.183Z,1010.44
2023-01-06T10:28:33.184Z,1010.43
2023-01-06T10:29:33.202Z,1010.44
2023-01-06T10:30:33.954Z,1010.47
2023-01-06T10:31:33.316Z,1010.48
2023-01-06T10:32:33.241Z,1010.40
2023-01-06T10:33:33.282Z,1010.39
2023-01-06T10:34:33.287Z,1010.40
2023-01-06T10:35:33.306Z,1010.35
2023-01-06T10:36:33.302Z,1010.37
2023-01-06T10:37:33.309Z,1010.30
2023-01-06T10:38:33.322Z,1010.32
2023-01-06T10:39:33.340Z,1010.23
2023-01-06T10:40:33.362Z,1010.20
2023-01-06T10:41:33.364Z,1010.18
2023-01-06T10:42:33.377Z,1010.20
2023-01-06T10:43:33.389Z,1010.21
2023-01-06T10:44:33.401Z,1010.20
2023-01-06T10:45:33.439Z,1010.26
2023-01-06T10:46:33.450Z,1010.24
2023-01-06T10:47:33.451Z,1010.21
2023-01-06T10:48:33.463Z,1010.21
2023-01-06T10:49:33.473Z,1010.16
2023-01-06T10:50:33.490Z,1010.19
2023-01-06T10:51:33.500Z,1010.17
2023-01-06T10:52:33.518Z,1010.12
2023-01-06T10:53:33.529Z,1010.15
2023-01-06T10:54:33.566Z,1010.15
2023-01-06T10:55:33.574Z,1010.10
2023-01-06T10:56:33.577Z,1010.11
2023-01-06T10:57:33.606Z,1010.15
2023-01-06T10:58:33.597Z,1010.16
2023-01-06T10:59:33.609Z,1010.15
2023-01-06T11:00:33.675Z,1010.14
2023-01-06T11:01:34.917Z,1010.11
2023-01-06T11:02:33.817Z,1010.14
2023-01-06T11:03:34.768Z,1010.14
2023-01-06T11:04:33.682Z,1010.08
2023-01-06T11:05:33.706Z,1010.09
2023-01-06T11:06:33.716Z,1010.10
2023-01-06T11:07:33.766Z,1010.06
2023-01-06T11:08:33.738Z,1010.07
2023-01-06T11:09:33.800Z,1010.05
2023-01-06T11:10:33.767Z,1010.01
2023-01-06T11:11:33.787Z,1009.98
2023-01-06T11:12:33.798Z,1010.00
2023-01-06T11:13:34.501Z,1009.97
2023-01-06T11:14:33.822Z,1010.00
2023-01-06T11:15:33.839Z,1010.00
2023-01-06T11:16:33.899Z,1010.00
2023-01-06T11:17:33.867Z,1009.96
2023-01-06T11:18:33.886Z,1009.90
2023-01-06T11:19:33.894Z,1009.89
2023-01-06T11:20:33.915Z,1009.84
2023-01-06T11:21:33.927Z,1009.83
2023-01-06T11:22:33.940Z,1009.82
2023-01-06T11:23:33.960Z,1009.75
2023-01-06T11:24:33.966Z,1009.78
2023-01-06T11:25:33.979Z,1009.76
2023-01-06T11:26:33.994Z,1009.77
2023-01-06T11:27:34.007Z,1009.78
2023-01-06T11:28:34.022Z,1009.79
2023-01-06T11:29:34.051Z,1009.79
2023-01-06T11:30:34.046Z,1009.75
2023-01-06T11:31:34.113Z,1009.68
2023-01-06T11:32:34.075Z,1009.69
2023-01-06T11:33:34.089Z,1009.76
2023-01-06T11:34:34.107Z,1009.82
2023-01-06T11:35:34.115Z,1009.74
2023-01-06T11:36:34.133Z,1009.75
2023-01-06T11:37:34.146Z,1009.76
2023-01-06T11:38:34.159Z,1009.75
2023-01-06T11:39:34.185Z,1009.73
2023-01-06T11:40:34.189Z,1009.71
2023-01-06T11:41:34.200Z,1009.66
2023-01-06T11:42:34.213Z,1009.66
2023-01-06T11:43:34.227Z,1009.70
2023-01-06T11:44:34.238Z,1009.67
2023-01-06T11:45:34.308Z,1009.69
2023-01-06T11:46:34.267Z,1009.71
2023-01-06T11:47:34.279Z,1009.68
2023-01-06T11:48:34.315Z,1009.70
2023-01-06T11:49:34.310Z,1009.62
2023-01-06T11:50:34.322Z,1009.64
2023-01-06T11:51:34.340Z,1009.65
2023-01-06T11:52:34.372Z,1009.69
2023-01-06T11:53:34.420Z,1009.71
2023-01-06T11:54:34.378Z,1009.68
2023-01-06T11:55:34.393Z,1009.68
2023-01-06T11:56:34.408Z,1009.75
2023-01-06T11:57:34.421Z,1009.74
2023-01-06T11:58:34.436Z,1009.74
2023-01-06T11:59:34.447Z,1009.69
2023-01-06T12:00:34.464Z,1009.65
2023-01-06T12:01:34.549Z,1009.68
2023-01-06T12:02:34.509Z,1009.63
2023-01-06T12:03:34.559Z,1009.52
2023-01-06T12:04:34.520Z,1009.57
2023-01-06T12:05:34.536Z,1009.52